Time;durP1;ratioP1;P1;durP2;ratioP2;P2;SDS_P1;SDS_P2;PMS_P1;PMS_P2;Temp;Humidity;BMP_temperature;BMP_pressure;BME280_temperature;BME280_humidity;BME280_pressure;Samples;Min_cycle;Max_cycle;Signal;HPM_P1;HPM_P2
2022/09/01 00:01:19;;;;;;;39.75;23.45;;;16.10;99.90;;;15.25;100.00;97573.47;4934917;29;20408;-76
2022/09/01 00:03:47;;;;;;;37.73;25.90;;;16.10;99.90;;;15.22;100.00;97579.34;4934366;29;20416;-76
2022/09/01 00:06:13;;;;;;;37.17;24.35;;;16.10;99.90;;;15.21;100.00;97576.94;4934853;29;20403;-76
2022/09/01 00:08:41;;;;;;;36.58;24.33;;;16.10;99.90;;;15.19;100.00;97577.19;4934791;29;20455;-76
2022/09/01 00:11:07;;;;;;;30.48;21.60;;;16.10;99.90;;;15.18;100.00;97582.84;4934725;29;20407;-76
2022/09/01 00:13:33;;;;;;;35.10;26.05;;;16.10;99.90;;;15.15;100.00;97581.50;4934034;29;20474;-75
2022/09/01 00:16:02;;;;;;;31.30;23.95;;;16.00;99.90;;;15.14;100.00;97574.56;4934624;29;20455;-75
2022/09/01 00:18:29;;;;;;;36.22;25.73;;;16.00;99.90;;;15.15;100.00;97573.50;4934593;29;20442;-76
2022/09/01 00:20:58;;;;;;;40.60;25.98;;;16.00;99.90;;;15.13;100.00;97575.66;4934433;29;20408;-75
2022/09/01 00:23:25;;;;;;;35.45;25.05;;;16.00;99.90;;;15.09;100.00;97579.94;4933915;29;20774;-76
2022/09/01 00:25:54;;;;;;;35.80;25.38;;;16.00;99.90;;;15.07;100.00;97580.22;4934436;29;20446;-76
2022/09/01 00:28:20;;;;;;;28.73;23.33;;;16.00;99.90;;;15.06;100.00;97580.47;4934539;29;20419;-76
2022/09/01 00:30:46;;;;;;;31.85;22.58;;;16.00;99.90;;;15.04;100.00;97578.09;4934325;29;20499;-76
2022/09/01 00:33:13;;;;;;;36.43;25.97;;;15.90;99.90;;;15.01;100.00;97583.97;4933764;29;20500;-76
2022/09/01 00:35:39;;;;;;;32.28;23.73;;;15.90;99.90;;;15.01;100.00;97578.66;4934209;29;20917;-75
2022/09/01 00:38:05;;;;;;;39.80;25.83;;;15.90;99.90;;;14.98;100.00;97581.84;4934195;29;20418;-75
2022/09/01 00:40:31;;;;;;;36.57;24.87;;;15.80;99.90;;;15.01;100.00;97580.53;4934250;29;20460;-76
2022/09/01 00:42:59;;;;;;;43.28;26.42;;;15.90;99.90;;;14.97;100.00;97582.13;4933627;29;20443;-75
2022/09/01 00:45:25;;;;;;;42.15;27.77;;;15.80;99.90;;;14.93;100.00;97575.75;4934234;29;20885;-75
2022/09/01 00:47:53;;;;;;;41.40;28.88;;;15.80;99.90;;;14.94;100.00;97569.34;4932168;29;20519;-76
2022/09/01 00:50:19;;;;;;;40.70;27.13;;;15.80;99.90;;;14.91;100.00;97570.69;4934092;29;20784;-76
2022/09/01 00:52:51;;;;;;;46.95;31.65;;;15.80;99.90;;;14.89;100.00;97572.03;4933174;29;20434;-76
2022/09/01 00:55:25;;;;;;;40.25;29.63;;;15.80;99.90;;;14.88;100.00;97570.47;4933939;29;20491;-75
2022/09/01 00:57:51;;;;;;;48.58;32.17;;;15.70;99.90;;;14.86;100.00;97564.59;4933765;29;20449;-75
2022/09/01 01:00:22;;;;;;;48.40;32.33;;;15.70;99.90;;;14.87;100.00;97571.53;4933833;29;20403;-75
2022/09/01 01:02:54;;;;;;;42.75;28.75;;;15.80;99.90;;;14.88;100.00;97570.47;4933223;29;20403;-75
2022/09/01 01:05:22;;;;;;;50.30;32.53;;;15.70;99.90;;;14.84;100.00;97572.06;4933712;29;20411;-75
2022/09/01 01:07:49;;;;;;;45.95;31.15;;;15.70;99.90;;;14.82;100.00;97572.31;4933727;29;20411;-75
2022/09/01 01:10:19;;;;;;;41.17;29.42;;;15.70;99.90;;;14.84;100.00;97564.06;4933618;29;20898;-76
2022/09/01 01:12:45;;;;;;;43.25;28.25;;;15.70;99.90;;;14.85;100.00;97569.13;4933060;29;20424;-75
2022/09/01 01:15:13;;;;;;;39.25;28.88;;;15.70;99.90;;;14.81;100.00;97570.72;4933451;29;20415;-76
2022/09/01 01:17:41;;;;;;;39.90;27.67;;;15.70;99.90;;;14.80;100.00;97565.69;4933571;29;20790;-75
2022/09/01 01:23:07;;;;;;;44.38;30.02;;;15.60;99.90;;;14.73;100.00;97573.19;4932931;29;20404;-76
2022/09/01 01:25:38;;;;;;;42.03;28.75;;;15.60;99.90;;;14.72;100.00;97569.72;4932313;29;20412;-75
2022/09/01 01:28:10;;;;;;;42.08;29.27;;;15.60;99.90;;;14.72;100.00;97567.06;4933324;29;20510;-76
2022/09/01 01:30:40;;;;;;;41.47;28.42;;;15.60;99.90;;;14.69;100.00;97560.41;4933524;29;20886;-75
2022/09/01 01:33:07;;;;;;;33.40;23.98;;;15.60;99.90;;;14.68;100.00;97569.47;4932214;29;20809;-75
2022/09/01 01:35:34;;;;;;;38.72;26.52;;;15.50;99.90;;;14.60;100.00;97569.22;4933400;29;20455;-75
2022/09/01 01:38:06;;;;;;;40.50;25.45;;;15.40;99.90;;;14.60;100.00;97578.00;4933266;29;20412;-75
2022/09/01 01:40:32;;;;;;;36.95;25.27;;;15.40;99.90;;;14.56;100.00;97576.19;4933418;29;20403;-75
2022/09/01 01:43:00;;;;;;;34.45;25.67;;;15.50;99.90;;;14.55;100.00;97574.56;4932682;29;20767;-74
2022/09/01 01:45:27;;;;;;;35.03;24.33;;;15.40;99.90;;;14.56;100.00;97576.97;4933300;29;20459;-75
2022/09/01 01:47:55;;;;;;;34.25;25.38;;;15.40;99.90;;;14.54;100.00;97573.78;4916236;29;20782;-75
2022/09/01 01:50:23;;;;;;;35.75;24.38;;;15.40;99.90;;;14.55;100.00;97561.25;4933210;29;20404;-74
2022/09/01 01:52:49;;;;;;;33.90;24.60;;;15.40;99.90;;;14.53;100.00;97560.72;4959249;23;20917;-69
2022/09/01 01:55:18;;;;;;;32.50;24.27;;;15.40;99.90;;;14.52;100.00;97567.13;4971537;28;20436;-70
2022/09/01 01:57:48;;;;;;;35.87;23.40;;;15.40;99.90;;;14.51;100.00;97562.88;4971461;28;20408;-70
2022/09/01 02:00:19;;;;;;;31.98;22.27;;;15.40;99.90;;;14.50;100.00;97566.59;4971595;28;20490;-71
2022/09/01 02:02:51;;;;;;;35.00;24.15;;;15.40;99.90;;;14.49;100.00;97567.69;4979123;28;20450;-71
2022/09/01 02:05:23;;;;;;;36.83;24.73;;;15.40;99.90;;;14.49;100.00;97570.34;4991036;28;20919;-71
2022/09/01 02:07:54;;;;;;;29.90;22.92;;;15.40;99.90;;;14.48;100.00;97563.41;4990849;28;20415;-71
2022/09/01 02:10:23;;;;;;;36.17;23.83;;;15.40;99.90;;;14.48;100.00;97580.19;4990814;28;20411;-71
2022/09/01 02:12:49;;;;;;;33.75;23.50;;;15.40;99.90;;;14.47;100.00;97575.94;4989999;28;20422;-71
2022/09/01 02:15:16;;;;;;;35.45;23.00;;;15.40;99.90;;;14.48;100.00;97574.06;4990777;28;20409;-72
2022/09/01 02:17:43;;;;;;;31.35;22.33;;;15.30;99.90;;;14.45;100.00;97578.06;4990828;28;20469;-72
2022/09/01 02:20:10;;;;;;;31.48;22.13;;;15.30;99.90;;;14.39;100.00;97573.03;4990768;28;20410;-71
2022/09/01 02:22:39;;;;;;;34.70;22.27;;;15.30;99.90;;;14.38;100.00;97569.56;4990471;28;20410;-72
2022/09/01 02:25:06;;;;;;;41.10;25.83;;;15.20;99.90;;;14.34;100.00;97571.16;4990464;28;20411;-71
2022/09/01 02:27:35;;;;;;;35.97;24.17;;;15.20;99.90;;;14.34;100.00;97568.47;4990588;28;20414;-71
2022/09/01 02:30:03;;;;;;;38.20;23.50;;;15.30;99.90;;;14.34;100.00;97568.47;4990627;28;20501;-71
2022/09/01 02:32:30;;;;;;;32.60;22.35;;;15.20;99.90;;;14.36;100.00;97576.97;4990374;28;20418;-72
2022/09/01 02:35:00;;;;;;;32.63;22.15;;;15.20;99.90;;;14.31;100.00;97575.13;4990268;28;20442;-71
2022/09/01 02:37:26;;;;;;;38.40;25.60;;;15.20;99.90;;;14.25;100.00;97578.09;4990591;28;20422;-71
2022/09/01 02:39:55;;;;;;;37.13;24.73;;;15.10;99.90;;;14.23;100.00;97573.03;4990547;28;20876;-72
2022/09/01 02:42:26;;;;;;;43.45;25.92;;;15.10;99.90;;;14.22;100.00;97574.09;4990340;28;20409;-71
2022/09/01 02:44:53;;;;;;;34.38;24.13;;;15.10;99.90;;;14.22;100.00;97576.75;4991042;28;20409;-71
2022/09/01 02:47:19;;;;;;;41.40;26.17;;;15.10;99.90;;;14.19;100.00;97579.16;4994128;28;20481;-72
2022/09/01 02:49:46;;;;;;;39.55;26.67;;;15.10;99.90;;;14.20;100.00;97573.59;4994017;28;21127;-71
2022/09/01 02:52:14;;;;;;;41.08;27.05;;;15.10;99.90;;;14.18;100.00;97573.03;4993697;28;20930;-71
2022/09/01 02:54:44;;;;;;;51.90;31.45;;;15.10;99.90;;;14.20;100.00;97570.13;4993376;28;20796;-71
2022/09/01 02:57:11;;;;;;;40.13;26.27;;;15.10;99.90;;;14.19;100.00;97574.66;4994015;28;20489;-72
2022/09/01 02:59:37;;;;;;;43.22;28.45;;;15.10;99.90;;;14.19;100.00;97565.84;4993846;28;20417;-71
2022/09/01 03:02:07;;;;;;;40.83;27.58;;;15.10;99.90;;;14.18;100.00;97561.59;4993704;28;20407;-71
2022/09/01 03:04:34;;;;;;;41.85;27.58;;;15.10;99.90;;;14.18;100.00;97565.06;4993352;28;20409;-71
2022/09/01 03:07:02;;;;;;;40.20;26.90;;;15.10;99.90;;;14.19;100.00;97557.88;4993775;28;20433;-71
2022/09/01 03:09:28;;;;;;;38.08;25.63;;;15.10;99.90;;;14.18;100.00;97559.72;4993687;28;20446;-71
2022/09/01 03:11:54;;;;;;;41.50;27.80;;;15.10;99.90;;;14.17;100.00;97555.47;4992304;28;20517;-71
2022/09/01 03:14:22;;;;;;;43.95;27.13;;;15.10;99.90;;;14.15;100.00;97548.81;4993154;28;20406;-71
2022/09/01 03:16:48;;;;;;;37.40;26.27;;;15.00;99.90;;;14.11;100.00;97548.56;4993657;28;20476;-71
2022/09/01 03:19:17;;;;;;;37.40;26.17;;;15.00;99.90;;;14.07;100.00;97552.00;4993487;28;20486;-71
2022/09/01 03:21:45;;;;;;;42.23;27.37;;;15.00;99.90;;;14.05;100.00;97551.50;4993476;28;20405;-71
2022/09/01 03:24:16;;;;;;;46.10;29.20;;;14.90;99.90;;;14.01;100.00;97551.22;4992899;28;20402;-71
2022/09/01 03:26:45;;;;;;;42.05;28.13;;;14.90;99.90;;;14.02;100.00;97552.03;4993471;28;20419;-71
2022/09/01 03:29:11;;;;;;;46.67;29.52;;;14.90;99.90;;;13.99;100.00;97561.34;4993167;28;20402;-71
2022/09/01 03:31:37;;;;;;;45.25;30.10;;;14.90;99.90;;;13.98;100.00;97557.13;4993273;28;20967;-71
2022/09/01 03:34:04;;;;;;;46.47;29.42;;;14.90;99.90;;;13.99;100.00;97561.34;4992581;28;20550;-71
2022/09/01 03:36:32;;;;;;;40.47;27.75;;;14.90;99.90;;;13.97;100.00;97560.03;4991872;28;20438;-71
2022/09/01 03:38:59;;;;;;;48.45;30.50;;;14.90;99.90;;;13.91;100.00;97556.56;4993007;28;20445;-71
2022/09/01 03:41:29;;;;;;;42.42;29.02;;;14.80;99.90;;;13.90;100.00;97568.28;4993080;28;20421;-71
2022/09/01 03:43:59;;;;;;;48.95;31.08;;;14.80;99.90;;;13.85;100.00;97566.41;4992525;28;20480;-71
2022/09/01 03:46:26;;;;;;;41.30;27.87;;;14.80;99.90;;;13.84;100.00;97564.81;4992933;28;20484;-70
2022/09/01 03:48:57;;;;;;;40.63;27.73;;;14.80;99.90;;;13.83;100.00;97565.13;4992924;28;20419;-70
2022/09/01 03:51:24;;;;;;;42.60;27.38;;;14.80;99.90;;;13.84;100.00;97569.34;4992965;28;20485;-71
2022/09/01 03:53:53;;;;;;;43.80;26.92;;;14.70;99.90;;;13.80;100.00;97570.94;4991239;28;20418;-71
2022/09/01 03:56:20;;;;;;;42.72;26.42;;;14.70;99.90;;;13.75;100.00;97562.97;4991432;28;20409;-71
2022/09/01 03:58:47;;;;;;;42.90;27.35;;;14.70;99.90;;;13.73;100.00;97559.78;4991868;28;20869;-71
2022/09/01 04:01:14;;;;;;;46.20;29.73;;;14.60;99.90;;;13.72;100.00;97563.50;4991709;28;20410;-70
2022/09/01 04:03:42;;;;;;;47.53;29.50;;;14.60;99.90;;;13.71;100.00;97567.22;4991202;28;20485;-70
2022/09/01 04:06:08;;;;;;;52.15;31.98;;;14.70;99.90;;;13.73;100.00;97567.75;4991629;28;20409;-70
2022/09/01 04:08:34;;;;;;;47.88;30.92;;;14.60;99.90;;;13.74;100.00;97569.38;4991658;28;20409;-71
2022/09/01 04:11:08;;;;;;;53.08;32.42;;;14.70;99.90;;;13.72;100.00;97558.97;4991843;28;20406;-70
2022/09/01 04:13:37;;;;;;;43.17;29.33;;;14.70;99.90;;;13.70;100.00;97562.97;4990898;28;20429;-70
2022/09/01 04:16:09;;;;;;;42.88;29.00;;;14.70;99.90;;;13.69;100.00;97564.03;4991476;28;20422;-70
2022/09/01 04:18:35;;;;;;;41.45;27.10;;;14.70;99.90;;;13.70;100.00;97565.63;4991462;28;20408;-70
2022/09/01 04:21:01;;;;;;;42.17;29.13;;;14.60;99.90;;;13.65;100.00;97570.94;4991441;28;20493;-70
2022/09/01 04:23:32;;;;;;;47.88;30.50;;;14.60;99.90;;;13.61;100.00;97568.00;4990781;28;20402;-70
2022/09/01 04:26:08;;;;;;;43.03;28.55;;;14.60;99.90;;;13.63;100.00;97570.41;4991397;28;20411;-70
2022/09/01 04:28:38;;;;;;;43.67;27.30;;;14.60;99.90;;;13.63;100.00;97565.09;4991490;28;20896;-70
2022/09/01 04:31:08;;;;;;;41.40;27.02;;;14.50;99.90;;;13.59;100.00;97572.81;4991359;28;20399;-70
2022/09/01 04:33:38;;;;;;;46.10;29.45;;;14.50;99.90;;;13.53;100.00;97564.03;4990349;28;20423;-70
2022/09/01 04:36:12;;;;;;;36.60;26.63;;;14.50;99.90;;;13.52;100.00;97564.31;4989899;28;20849;-70
2022/09/01 04:38:38;;;;;;;43.28;27.40;;;14.50;99.90;;;13.50;100.00;97572.53;4991131;28;20406;-70
2022/09/01 04:41:05;;;;;;;47.75;30.00;;;14.40;99.90;;;13.44;100.00;97573.59;4991206;28;20407;-70
2022/09/01 04:43:31;;;;;;;49.17;30.70;;;14.40;99.90;;;13.44;100.00;97576.25;4989267;28;20469;-70
2022/09/01 04:45:58;;;;;;;47.88;30.80;;;14.40;99.90;;;13.45;100.00;97574.41;4991112;28;20402;-70
2022/09/01 04:48:25;;;;;;;44.70;28.63;;;14.40;99.90;;;13.47;100.00;97578.38;4990982;28;20409;-70
2022/09/01 04:50:52;;;;;;;45.35;29.63;;;14.40;99.90;;;13.44;100.00;97576.25;4990808;28;20403;-71
2022/09/01 04:53:19;;;;;;;40.03;26.67;;;14.40;99.90;;;13.44;100.00;97572.81;4930648;28;1718542;-70
2022/09/01 04:55:46;;;;;;;43.95;27.85;;;14.40;99.90;;;13.41;100.00;97570.66;4991712;28;20414;-70
2022/09/01 04:58:17;;;;;;;40.17;27.87;;;14.40;99.90;;;13.38;100.00;97571.22;4991586;28;20497;-70
2022/09/01 05:00:46;;;;;;;49.50;29.67;;;14.30;99.90;;;13.39;100.00;97573.59;4991735;28;20497;-70
2022/09/01 05:03:12;;;;;;;39.25;27.55;;;14.30;99.90;;;13.42;100.00;97578.38;4991158;28;20394;-70
2022/09/01 05:05:42;;;;;;;41.75;28.08;;;14.40;99.90;;;13.43;100.00;97569.34;4991555;28;20909;-70
2022/09/01 05:08:13;;;;;;;43.35;28.33;;;14.30;99.90;;;13.40;100.00;97574.38;4990747;28;20398;-70
2022/09/01 05:10:42;;;;;;;43.58;27.67;;;14.30;99.90;;;13.42;100.00;97569.59;4991595;28;20542;-70
2022/09/01 05:13:09;;;;;;;42.47;29.25;;;14.30;99.90;;;13.31;100.00;97558.16;4990752;28;20422;-70
2022/09/01 05:15:37;;;;;;;52.25;31.83;;;14.30;99.90;;;13.43;100.00;97569.34;4991460;28;20410;-70
2022/09/01 05:18:08;;;;;;;44.95;30.00;;;14.40;99.90;;;13.47;100.00;97573.06;4991468;28;20406;-70
2022/09/01 05:20:38;;;;;;;47.05;29.42;;;14.40;99.90;;;13.52;100.00;97574.94;4991461;28;20413;-70
2022/09/01 05:23:06;;;;;;;45.95;28.65;;;14.40;99.90;;;13.54;100.00;97568.28;4990760;28;20489;-70
2022/09/01 05:25:42;;;;;;;41.55;27.02;;;14.50;99.90;;;13.57;100.00;97566.97;4991299;28;20430;-70
2022/09/01 05:28:11;;;;;;;39.97;26.33;;;14.50;99.90;;;13.59;100.00;97580.81;4991307;28;20402;-71
2022/09/01 05:30:39;;;;;;;43.90;29.38;;;14.50;99.90;;;13.61;100.00;97578.66;4991138;28;20421;-71
2022/09/01 05:33:15;;;;;;;39.60;26.27;;;14.50;99.90;;;13.64;100.00;97566.69;4990455;28;20734;-71
2022/09/01 05:35:50;;;;;;;42.33;29.02;;;14.60;99.90;;;13.64;100.00;97570.16;4991151;28;20489;-71
2022/09/01 05:38:18;;;;;;;45.08;28.50;;;14.60;99.90;;;13.68;100.00;97570.44;4988396;28;20497;-70
2022/09/01 05:40:53;;;;;;;42.70;28.40;;;14.60;99.90;;;13.70;100.00;97568.28;4988552;28;20418;-72
2022/09/01 05:43:20;;;;;;;39.77;27.27;;;14.60;99.90;;;13.73;100.00;97573.88;4990327;28;20475;-71
2022/09/01 05:45:46;;;;;;;42.63;27.85;;;14.60;99.90;;;13.74;100.00;97567.50;4990970;28;20416;-71
2022/09/01 05:48:14;;;;;;;42.53;27.50;;;14.60;99.90;;;13.76;100.00;97572.53;4990328;28;20505;-71
2022/09/01 05:50:44;;;;;;;41.47;27.48;;;14.70;99.90;;;13.79;100.00;97575.47;4989896;28;20835;-71
2022/09/01 05:53:16;;;;;;;42.80;27.75;;;14.70;99.90;;;13.82;100.00;97574.16;4989885;28;20441;-71
2022/09/01 05:55:44;;;;;;;37.83;25.88;;;14.70;99.90;;;13.84;100.00;97580.78;4991008;28;20402;-71
2022/09/01 05:58:12;;;;;;;40.88;26.98;;;14.70;99.90;;;13.87;100.00;97579.47;4991031;28;20402;-70
2022/09/01 06:00:41;;;;;;;39.40;26.90;;;14.80;99.90;;;13.90;100.00;97586.94;4991090;28;20460;-70
2022/09/01 06:03:09;;;;;;;44.37;27.57;;;14.80;99.90;;;13.97;100.00;97584.00;4985822;28;20498;-70
2022/09/01 06:05:35;;;;;;;38.97;27.17;;;14.80;99.90;;;14.02;100.00;97576.00;4990858;28;20406;-70
2022/09/01 06:08:04;;;;;;;38.17;27.40;;;14.80;99.90;;;14.04;100.00;97581.84;4990956;28;20399;-70
2022/09/01 06:10:30;;;;;;;43.72;29.23;;;14.90;99.90;;;14.09;100.00;97579.19;4989572;28;20741;-69
2022/09/01 06:13:01;;;;;;;44.85;29.42;;;14.90;99.90;;;14.10;100.00;97581.56;4990209;28;20452;-70
2022/09/01 06:15:29;;;;;;;42.10;29.58;;;14.90;99.90;;;14.11;100.00;97574.38;4990721;28;20413;-69
2022/09/01 06:17:55;;;;;;;49.45;31.63;;;15.00;99.90;;;14.12;100.00;97582.13;4990698;28;20398;-70
2022/09/01 06:20:22;;;;;;;45.58;30.67;;;15.00;99.90;;;14.13;100.00;97574.94;4991820;28;20433;-70
2022/09/01 06:22:48;;;;;;;49.67;33.00;;;15.00;99.90;;;14.15;100.00;97575.44;4992639;28;20402;-70
2022/09/01 06:25:17;;;;;;;44.92;32.63;;;15.00;99.90;;;14.17;100.00;97574.09;4994454;28;20415;-72
2022/09/01 06:27:43;;;;;;;49.38;32.58;;;15.00;99.90;;;14.22;100.00;97575.94;4994565;28;20979;-70
2022/09/01 06:30:16;;;;;;;51.50;32.25;;;15.10;99.90;;;14.28;100.00;97583.66;4994688;28;20415;-69
2022/09/01 06:32:43;;;;;;;50.03;32.65;;;15.10;99.90;;;14.38;100.00;97574.88;4993929;28;20460;-70
2022/09/01 06:35:10;;;;;;;45.92;31.45;;;15.20;99.90;;;14.46;100.00;97584.19;4994027;28;20408;-69
2022/09/01 06:37:37;;;;;;;49.70;32.60;;;15.30;99.90;;;14.55;100.00;97579.91;4994431;28;20403;-70
2022/09/01 06:40:05;;;;;;;47.63;31.10;;;15.40;99.90;;;14.60;100.00;97570.03;4994279;28;20612;-70
2022/09/01 06:42:34;;;;;;;41.78;29.98;;;15.40;99.90;;;14.68;100.00;97574.00;4993776;28;20768;-70
2022/09/01 06:44:59;;;;;;;42.22;29.13;;;15.50;99.90;;;14.74;100.00;97578.22;4993730;28;20416;-70
2022/09/01 06:47:29;;;;;;;43.22;30.08;;;15.50;99.90;;;14.81;100.00;97572.63;4992819;28;20791;-70
2022/09/01 06:49:58;;;;;;;41.63;29.35;;;15.60;99.90;;;14.86;100.00;97568.06;4993906;28;20490;-70
2022/09/01 06:52:24;;;;;;;42.53;30.10;;;15.70;99.90;;;14.90;100.00;97570.97;4993675;28;20422;-70
2022/09/01 06:54:54;;;;;;;42.85;29.42;;;15.70;99.90;;;14.95;100.00;97585.09;4989034;28;20402;-70
2022/09/01 06:57:21;;;;;;;39.90;28.43;;;15.80;99.90;;;15.01;100.00;97580.53;4984348;28;20439;-71
2022/09/01 06:59:49;;;;;;;41.95;29.30;;;15.80;99.90;;;15.05;100.00;97582.34;4982541;28;20414;-71
2022/09/01 07:02:15;;;;;;;41.00;28.60;;;15.80;99.90;;;15.10;100.00;97590.34;4985420;28;20418;-70
2022/09/01 07:04:43;;;;;;;38.35;28.55;;;15.90;99.90;;;15.17;100.00;97581.25;4992476;28;20815;-70
2022/09/01 07:07:11;;;;;;;40.30;28.33;;;15.90;99.90;;;15.22;100.00;97583.88;4990383;28;20406;-71
2022/09/01 07:09:38;;;;;;;45.20;31.08;;;16.00;99.90;;;15.27;100.00;97586.50;4993634;28;20411;-71
2022/09/01 07:12:05;;;;;;;40.90;29.02;;;16.10;99.90;;;15.34;100.00;97590.44;4993650;28;20421;-73
2022/09/01 07:14:31;;;;;;;41.13;28.35;;;16.10;99.90;;;15.41;100.00;97598.16;4992999;28;20407;-72
2022/09/01 07:16:57;;;;;;;35.92;26.80;;;16.20;99.90;;;15.45;100.00;97589.31;4993533;28;20406;-73
2022/09/01 07:19:24;;;;;;;38.17;27.73;;;16.20;99.90;;;15.52;100.00;97597.00;4993473;28;20489;-72
2022/09/01 07:21:52;;;;;;;37.65;27.13;;;16.30;99.90;;;15.54;100.00;97602.09;4993518;28;20437;-73
2022/09/01 07:24:19;;;;;;;37.17;26.38;;;16.30;99.90;;;15.58;100.00;97595.13;4992962;28;20418;-73
2022/09/01 07:26:52;;;;;;;37.83;25.75;;;16.40;99.90;;;15.68;100.00;97603.88;4993587;28;20832;-73
2022/09/01 07:29:21;;;;;;;35.13;25.33;;;16.40;99.90;;;15.74;100.00;97602.75;4993657;28;20409;-72
2022/09/01 07:31:48;;;;;;;36.60;24.70;;;16.50;99.90;;;15.77;100.00;97598.75;4992474;28;20414;-73
2022/09/01 07:34:15;;;;;;;34.40;24.30;;;16.50;99.90;;;15.79;100.00;97600.03;4992736;28;20418;-72
2022/09/01 07:36:43;;;;;;;35.30;24.60;;;16.60;99.90;;;15.85;100.00;97603.47;4993348;28;20876;-72
2022/09/01 07:39:13;;;;;;;35.08;25.35;;;16.60;99.90;;;15.90;100.00;97603.44;4993368;28;20405;-72
2022/09/01 07:41:40;;;;;;;36.47;24.13;;;16.70;99.90;;;15.99;100.00;97606.31;4993218;28;20415;-72
2022/09/01 07:44:12;;;;;;;30.23;22.40;;;16.80;99.90;;;16.06;100.00;97610.25;4992579;28;20473;-72
2022/09/01 07:46:39;;;;;;;29.25;23.02;;;16.80;99.90;;;16.08;100.00;97607.31;4993089;28;20452;-72
2022/09/01 07:49:05;;;;;;;32.80;23.40;;;16.80;99.90;;;16.10;100.00;97611.25;4992924;28;20429;-72
2022/09/01 07:51:33;;;;;;;30.95;22.23;;;16.90;99.90;;;16.10;100.00;97613.94;4992941;28;20418;-72
2022/09/01 07:54:01;;;;;;;29.88;22.67;;;16.80;99.90;;;16.14;100.00;97612.31;4976640;23;20915;-73
2022/09/01 07:56:29;;;;;;;28.50;21.35;;;16.90;99.90;;;16.20;100.00;97626.41;4954125;28;20456;-74
2022/09/01 07:58:58;;;;;;;28.58;21.02;;;17.00;99.90;;;16.21;100.00;97620.78;4954147;28;20437;-74
2022/09/01 08:01:26;;;;;;;27.53;20.60;;;17.00;99.90;;;16.25;100.00;97626.34;4954203;29;20896;-76
2022/09/01 08:03:55;;;;;;;28.70;20.03;;;17.00;99.90;;;16.32;100.00;97623.34;4953343;29;20406;-76
2022/09/01 08:06:25;;;;;;;28.70;20.52;;;17.10;99.90;;;16.33;100.00;97623.06;4954109;28;20418;-76
2022/09/01 08:08:53;;;;;;;24.57;19.07;;;17.10;99.90;;;16.42;100.00;97631.28;4953978;28;20477;-76
2022/09/01 08:11:23;;;;;;;26.97;18.40;;;17.10;99.90;;;16.51;100.00;97630.38;4953991;29;20422;-76
2022/09/01 08:13:52;;;;;;;23.37;17.33;;;17.20;99.90;;;16.58;100.00;97632.72;4953250;28;20492;-76
2022/09/01 08:16:19;;;;;;;24.05;17.63;;;17.30;99.90;;;16.59;100.00;97635.13;4954134;29;20864;-76
2022/09/01 08:18:46;;;;;;;23.88;17.00;;;17.30;99.90;;;16.67;100.00;97632.94;4953903;28;20918;-76
2022/09/01 08:21:14;;;;;;;22.05;16.38;;;17.40;99.90;;;16.73;100.00;97629.13;4953854;28;20416;-76
2022/09/01 08:23:40;;;;;;;19.98;14.85;;;17.40;99.90;;;16.79;100.00;97636.00;4953271;28;20772;-76
2022/09/01 08:26:09;;;;;;;18.35;14.02;;;17.50;99.90;;;16.84;100.00;97635.97;4953668;28;20410;-76
2022/09/01 08:28:35;;;;;;;19.73;14.98;;;17.50;99.90;;;16.85;100.00;97640.19;4953760;29;20410;-76
2022/09/01 08:31:09;;;;;;;19.27;14.40;;;17.50;99.90;;;16.85;100.00;97632.19;4953762;29;20418;-75
2022/09/01 08:33:35;;;;;;;16.80;13.80;;;17.50;99.90;;;16.83;100.00;97640.50;4953068;28;20422;-75
2022/09/01 08:36:03;;;;;;;17.63;13.75;;;17.50;99.90;;;16.82;100.00;97638.91;4953779;29;20472;-75
2022/09/01 08:38:29;;;;;;;17.75;13.50;;;17.50;99.90;;;16.86;100.00;97642.59;4953608;29;20410;-75
2022/09/01 08:40:58;;;;;;;18.97;13.90;;;17.50;99.90;;;16.85;100.00;97635.66;4953469;28;20918;-76
2022/09/01 08:43:42;;;;;;;19.80;14.98;;;17.50;99.90;;;16.86;100.00;97636.44;4952803;28;20768;-75
2022/09/01 08:46:16;;;;;;;16.60;13.20;;;17.50;99.90;;;16.90;100.00;97640.16;4952116;29;20932;-75
2022/09/01 08:48:45;;;;;;;16.67;12.68;;;17.60;99.90;;;16.95;100.00;97637.41;4952877;28;20893;-75
2022/09/01 08:51:20;;;;;;;20.40;13.73;;;17.60;99.90;;;16.97;100.00;97636.06;4953158;29;20413;-75
2022/09/01 08:53:57;;;;;;;17.52;13.20;;;17.70;99.90;;;17.02;100.00;97640.53;4952369;28;20495;-75
2022/09/01 08:56:23;;;;;;;16.02;12.93;;;17.70;99.90;;;17.09;100.00;97640.19;4953198;29;20900;-76
2022/09/01 08:58:49;;;;;;;19.02;12.43;;;17.70;99.90;;;17.10;100.00;97639.13;4953037;29;20418;-76
2022/09/01 09:01:26;;;;;;;17.25;11.60;;;17.80;99.90;;;17.15;100.00;97642.50;4952994;29;20517;-76
2022/09/01 09:04:12;;;;;;;14.45;11.27;;;17.80;99.90;;;17.18;100.00;97647.31;4952481;29;20406;-76
2022/09/01 09:06:47;;;;;;;15.88;11.38;;;17.90;99.90;;;17.13;100.00;97642.03;4952858;29;20468;-76
2022/09/01 09:09:13;;;;;;;12.98;10.63;;;17.90;99.90;;;17.20;100.00;97647.03;4952820;29;20413;-76
2022/09/01 09:12:09;;;;;;;14.70;11.07;;;17.90;99.90;;;17.21;100.00;97651.28;4953012;29;20504;-76
2022/09/01 09:15:05;;;;;;;14.35;10.70;;;17.90;99.90;;;17.25;100.00;97649.63;4952259;28;20418;-74
2022/09/01 09:17:39;;;;;;;13.25;9.90;;;17.90;99.90;;;17.26;100.00;97649.34;4952667;28;20475;-76
2022/09/01 09:20:06;;;;;;;14.93;10.55;;;17.90;99.90;;;17.30;100.00;97649.53;4947914;28;20422;-73
2022/09/01 09:22:32;;;;;;;14.57;11.53;;;18.00;99.90;;;17.35;99.79;97652.19;4952706;28;20496;-75
2022/09/01 09:25:06;;;;;;;14.30;10.57;;;18.00;99.90;;;17.42;99.77;97647.25;4952214;29;20410;-73
2022/09/01 09:27:35;;;;;;;13.30;10.75;;;18.10;99.90;;;17.49;99.20;97645.03;4952736;28;20421;-75
2022/09/01 09:30:06;;;;;;;11.48;9.88;;;18.20;99.90;;;17.57;97.87;97640.91;4952729;29;20401;-74
2022/09/01 09:32:48;;;;;;;12.05;10.13;;;18.20;99.90;;;17.67;97.97;97646.13;4952177;28;20464;-75
2022/09/01 09:35:24;;;;;;;11.73;9.68;;;18.30;99.90;;;17.76;97.75;97644.38;4952551;28;20430;-75
2022/09/01 09:37:51;;;;;;;11.70;9.30;;;18.40;99.90;;;17.82;97.98;97645.91;4952549;28;20409;-75
2022/09/01 09:40:21;;;;;;;11.80;9.38;;;18.50;99.90;;;17.98;97.95;97649.13;4952521;29;20405;-75
2022/09/01 09:43:06;;;;;;;11.65;8.70;;;18.60;99.90;;;18.03;95.19;97655.22;4951806;28;20398;-75
2022/09/01 09:45:35;;;;;;;13.43;9.00;;;18.70;99.90;;;18.02;92.41;97642.13;4952221;29;20413;-75
2022/09/01 09:48:08;;;;;;;13.05;8.60;;;18.70;99.90;;;18.06;93.29;97649.28;4952370;28;20421;-75
2022/09/01 09:50:37;;;;;;;11.80;8.95;;;18.70;99.90;;;18.08;94.19;97646.31;4952387;28;20402;-75
2022/09/01 09:53:16;;;;;;;13.13;9.88;;;18.70;99.90;;;18.11;94.41;97643.84;4951936;28;20422;-75
2022/09/01 09:55:56;;;;;;;11.82;9.32;;;18.80;99.90;;;18.29;95.48;97636.84;4958721;28;20405;-75
2022/09/01 09:58:25;;;;;;;12.00;9.20;;;18.90;99.90;;;18.44;94.54;97641.13;4958754;28;20410;-75
2022/09/01 10:01:01;;;;;;;11.45;8.98;;;19.00;99.90;;;18.50;92.70;97632.69;4958720;28;20409;-75
2022/09/01 10:03:41;;;;;;;11.30;8.05;;;19.10;99.90;;;18.70;93.21;97630.78;4958141;28;20433;-75
2022/09/01 10:06:11;;;;;;;9.70;7.90;;;19.30;99.90;;;18.93;93.59;97627.91;4960873;28;20424;-75
2022/09/01 10:08:43;;;;;;;11.65;7.88;;;19.50;99.90;;;19.09;90.38;97622.25;4939499;29;20414;-75
2022/09/01 10:11:24;;;;;;;10.23;7.40;;;19.60;99.90;;;19.17;87.98;97621.53;4939375;29;20414;-75